Time;durP1;ratioP1;P1;durP2;ratioP2;P2;SDS_P1;SDS_P2;PMS_P1;PMS_P2;Temp;Humidity;BMP_temperature;BMP_pressure;BME280_temperature;BME280_humidity;BME280_pressure;Samples;Min_cycle;Max_cycle;Signal;HPM_P1;HPM_P2
2023/10/01 00:00:46;;;;;;;12.57;8.90;;;;;;;17.96;55.42;100622.31;4954474;28;20480;-76
2023/10/01 00:03:17;;;;;;;13.35;9.60;;;;;;;17.95;55.56;100616.13;4954532;28;20087;-76
2023/10/01 00:05:44;;;;;;;13.88;8.93;;;;;;;17.97;55.50;100613.38;4953269;28;20051;-77
2023/10/01 00:08:13;;;;;;;14.00;9.70;;;;;;;17.95;55.57;100607.31;4954404;28;20055;-77
2023/10/01 00:10:41;;;;;;;14.80;9.65;;;;;;;17.95;55.65;100607.31;4954248;28;20190;-77
2023/10/01 00:13:08;;;;;;;16.45;9.48;;;;;;;17.94;55.49;100610.94;4954223;28;20067;-77
2023/10/01 00:15:34;;;;;;;12.80;9.27;;;;;;;17.91;55.75;100609.34;4954314;28;20055;-77
2023/10/01 00:18:01;;;;;;;17.08;9.63;;;;;;;17.91;55.59;100605.84;4954365;28;20051;-79
2023/10/01 00:20:28;;;;;;;15.07;10.35;;;;;;;17.90;55.77;100604.16;4954179;28;20091;-76
2023/10/01 00:23:02;;;;;;;16.20;10.70;;;;;;;17.88;55.99;100606.06;4953706;28;20051;-76
2023/10/01 00:25:30;;;;;;;13.85;9.23;;;;;;;17.89;55.81;100610.41;4952879;28;20098;-77
2023/10/01 00:27:58;;;;;;;14.50;10.65;;;;;;;17.89;55.82;100623.72;4954223;28;20055;-78
2023/10/01 00:30:31;;;;;;;18.02;10.63;;;;;;;17.88;55.80;100624.72;4954062;28;20491;-77
2023/10/01 00:33:05;;;;;;;18.88;11.25;;;;;;;17.84;56.05;100627.59;4953548;28;20491;-77
2023/10/01 00:35:32;;;;;;;16.92;10.93;;;;;;;17.85;55.79;100623.13;4953906;28;20059;-77
2023/10/01 00:37:59;;;;;;;15.30;10.80;;;;;;;17.83;56.13;100630.38;4954157;28;20575;-77
2023/10/01 00:40:27;;;;;;;17.60;11.32;;;;;;;17.82;56.00;100640.19;4952654;29;20070;-78
2023/10/01 00:42:54;;;;;;;15.63;10.15;;;;;;;17.80;56.13;100636.75;4953249;29;20443;-78
2023/10/01 00:45:21;;;;;;;15.38;10.88;;;;;;;17.79;56.01;100643.06;4953680;28;20055;-77
2023/10/01 00:47:48;;;;;;;16.98;10.43;;;;;;;17.79;56.09;100642.22;4952524;28;20073;-77
2023/10/01 00:50:18;;;;;;;15.90;10.45;;;;;;;17.81;56.36;100637.63;4953956;28;20090;-78
2023/10/01 00:52:46;;;;;;;18.77;11.77;;;;;;;17.80;56.23;100623.44;4953649;28;20105;-77
2023/10/01 00:55:14;;;;;;;16.02;10.65;;;;;;;17.82;56.23;100618.00;4952253;29;20066;-77
2023/10/01 00:57:41;;;;;;;17.63;11.38;;;;;;;17.82;56.24;100608.22;4952434;29;20055;-77
2023/10/01 01:00:14;;;;;;;15.38;10.63;;;;;;;17.82;56.48;100608.22;4953502;28;20050;-78
2023/10/01 01:02:57;;;;;;;14.57;11.02;;;;;;;17.81;56.39;100603.88;4951821;28;20047;-77
2023/10/01 01:05:25;;;;;;;15.77;11.33;;;;;;;17.83;56.12;100599.25;4953216;28;20467;-77
2023/10/01 01:07:52;;;;;;;15.70;11.20;;;;;;;17.81;56.48;100593.22;4953562;28;20299;-77
2023/10/01 01:10:19;;;;;;;19.38;12.00;;;;;;;17.78;56.51;100593.44;4953316;29;20059;-77
2023/10/01 01:12:51;;;;;;;14.90;11.15;;;;;;;17.78;56.44;100592.56;4952951;28;20055;-79
2023/10/01 01:15:20;;;;;;;18.70;11.68;;;;;;;17.76;56.13;100592.69;4953177;28;20120;-76
2023/10/01 01:17:48;;;;;;;18.55;11.63;;;;;;;17.73;56.50;100587.59;4953353;29;20057;-77
2023/10/01 01:20:16;;;;;;;16.63;11.18;;;;;;;17.70;56.57;100577.19;4953319;28;20069;-78
2023/10/01 01:22:52;;;;;;;16.67;11.30;;;;;;;17.65;57.03;100574.84;4953043;29;20051;-77
2023/10/01 01:25:21;;;;;;;16.40;12.15;;;;;;;17.66;56.49;100575.69;4951180;29;20087;-76
2023/10/01 01:27:48;;;;;;;16.58;11.82;;;;;;;17.64;56.77;100574.97;4952940;28;20050;-76
2023/10/01 01:30:19;;;;;;;18.48;12.02;;;;;;;17.61;56.74;100575.19;4951875;29;20055;-76
2023/10/01 01:32:47;;;;;;;19.50;11.73;;;;;;;17.59;56.79;100572.66;4953191;28;20062;-77
2023/10/01 01:35:14;;;;;;;17.90;12.02;;;;;;;17.56;56.59;100571.06;4952621;28;20090;-80
2023/10/01 01:37:47;;;;;;;20.58;12.32;;;;;;;17.54;57.02;100566.81;4952629;29;20106;-77
2023/10/01 01:40:24;;;;;;;24.05;12.45;;;;;;;17.51;56.91;100567.91;4953157;28;20051;-77
2023/10/01 01:42:52;;;;;;;17.88;12.35;;;;;;;17.48;56.87;100568.13;4953011;28;20097;-78
2023/10/01 01:45:19;;;;;;;17.15;12.20;;;;;;;17.46;57.03;100559.41;4952726;28;20508;-76
2023/10/01 01:47:46;;;;;;;19.65;13.02;;;;;;;17.43;57.12;100573.75;4951296;29;20106;-78
2023/10/01 01:50:26;;;;;;;19.02;13.75;;;;;;;17.43;57.21;100578.25;4952807;29;20059;-77
2023/10/01 01:52:57;;;;;;;18.30;12.80;;;;;;;17.41;57.47;100580.16;4952753;28;20057;-77
2023/10/01 01:55:28;;;;;;;17.23;11.57;;;;;;;17.40;57.51;100573.16;4952778;28;20051;-77
2023/10/01 01:58:10;;;;;;;16.70;12.55;;;;;;;17.37;57.87;100568.91;4951133;29;20419;-77
2023/10/01 02:00:38;;;;;;;16.55;12.20;;;;;;;17.41;57.60;100569.50;4952579;28;20098;-79
2023/10/01 02:03:14;;;;;;;17.75;12.40;;;;;;;17.42;57.67;100565.91;4952856;28;20418;-77
2023/10/01 02:05:42;;;;;;;15.80;11.35;;;;;;;17.42;57.67;100560.59;4952698;28;20134;-76
2023/10/01 02:08:10;;;;;;;19.73;12.23;;;;;;;17.43;57.98;100559.63;4952454;28;20491;-76
2023/10/01 02:10:46;;;;;;;19.90;12.45;;;;;;;17.45;57.99;100565.66;4952681;28;20130;-76
2023/10/01 02:13:15;;;;;;;17.30;12.32;;;;;;;17.47;57.68;100558.44;4952552;28;20102;-76
2023/10/01 02:15:47;;;;;;;18.33;12.40;;;;;;;17.46;58.19;100562.06;4953794;28;20059;-76
2023/10/01 02:18:17;;;;;;;22.27;13.23;;;;;;;17.48;57.47;100562.78;4956233;28;20055;-77
2023/10/01 02:20:44;;;;;;;21.15;13.40;;;;;;;17.48;57.75;100564.59;4956406;28;20080;-76
2023/10/01 02:23:17;;;;;;;21.75;13.57;;;;;;;17.46;57.72;100556.75;4956374;28;20102;-76
2023/10/01 02:25:46;;;;;;;18.05;11.95;;;;;;;17.46;57.98;100554.09;4956188;28;20059;-76
2023/10/01 02:28:14;;;;;;;18.63;12.45;;;;;;;17.46;57.55;100548.75;4956146;28;20090;-78
2023/10/01 02:30:42;;;;;;;18.63;12.82;;;;;;;17.44;57.76;100553.31;4956421;29;20055;-77
2023/10/01 02:33:18;;;;;;;20.80;13.70;;;;;;;17.44;57.75;100548.88;4956212;28;20071;-78
2023/10/01 02:35:55;;;;;;;17.67;13.70;;;;;;;17.41;58.16;100545.56;4956054;29;20137;-78
2023/10/01 02:38:40;;;;;;;17.88;12.10;;;;;;;17.43;57.69;100554.28;4955739;28;20567;-78
2023/10/01 02:41:09;;;;;;;19.15;13.20;;;;;;;17.41;57.72;100551.75;4937128;29;20118;-76
2023/10/01 02:43:41;;;;;;;21.30;13.43;;;;;;;17.39;57.81;100553.69;4936976;29;20083;-77
2023/10/01 02:46:11;;;;;;;19.23;13.68;;;;;;;17.38;57.91;100553.78;4936794;29;20056;-76
2023/10/01 02:48:41;;;;;;;23.83;13.50;;;;;;;17.37;57.90;100549.41;4958754;28;20142;-77
2023/10/01 02:51:15;;;;;;;20.10;13.38;;;;;;;17.37;57.94;100546.75;4955791;28;20058;-77
2023/10/01 02:54:01;;;;;;;24.70;13.82;;;;;;;17.35;58.26;100551.34;4955853;28;20059;-76
2023/10/01 02:56:37;;;;;;;21.48;12.90;;;;;;;17.35;57.83;100546.88;4955633;28;20055;-77
2023/10/01 02:59:13;;;;;;;20.27;12.98;;;;;;;17.33;58.04;100543.47;4955391;28;20079;-76
2023/10/01 03:01:47;;;;;;;22.95;13.48;;;;;;;17.32;58.14;100550.59;4936602;29;20051;-77
2023/10/01 03:04:16;;;;;;;21.58;13.77;;;;;;;17.33;58.08;100551.44;4954401;29;20055;-76
2023/10/01 03:06:53;;;;;;;15.88;12.13;;;;;;;17.33;58.17;100556.78;4955539;28;20063;-76
2023/10/01 03:09:29;;;;;;;19.80;12.82;;;;;;;17.32;58.21;100555.09;4955359;28;20047;-77
2023/10/01 03:12:24;;;;;;;21.20;13.50;;;;;;;17.31;58.08;100548.91;4936586;29;20081;-77
2023/10/01 03:15:00;;;;;;;21.92;13.07;;;;;;;17.31;58.07;100548.06;4936210;29;20135;-77
2023/10/01 03:17:28;;;;;;;23.10;13.38;;;;;;;17.30;58.14;100543.69;4936411;29;20083;-77
2023/10/01 03:19:54;;;;;;;20.40;12.98;;;;;;;17.29;58.15;100548.19;4945325;28;20062;-77
2023/10/01 03:22:23;;;;;;;22.95;13.63;;;;;;;17.28;58.16;100543.81;4955473;29;20059;-78
2023/10/01 03:24:53;;;;;;;18.50;12.70;;;;;;;17.28;58.05;100554.47;4955270;28;20495;-76
2023/10/01 03:29:49;;;;;;;22.35;12.65;;;;;;;17.26;58.34;100555.50;4955072;28;20051;-77
2023/10/01 03:32:27;;;;;;;20.17;12.38;;;;;;;17.26;58.20;100548.38;4953952;28;20131;-76
2023/10/01 03:34:55;;;;;;;19.70;13.07;;;;;;;17.27;58.47;100562.56;4954947;28;20065;-77
2023/10/01 03:37:37;;;;;;;20.13;12.85;;;;;;;17.25;58.80;100556.47;4954997;29;20143;-77
2023/10/01 03:40:22;;;;;;;20.42;13.75;;;;;;;17.24;58.69;100555.66;4954890;28;20799;-77
2023/10/01 03:42:52;;;;;;;16.73;11.70;;;;;;;17.25;58.28;100544.03;4954786;28;20051;-79
2023/10/01 03:45:38;;;;;;;19.00;11.57;;;;;;;17.24;58.30;100539.69;4954740;28;20463;-79
2023/10/01 03:48:07;;;;;;;16.77;11.50;;;;;;;17.24;58.25;100544.16;4955045;28;20062;-77
2023/10/01 03:50:45;;;;;;;22.40;12.95;;;;;;;17.22;58.23;100533.59;4954479;28;20051;-76
2023/10/01 03:53:17;;;;;;;18.92;12.10;;;;;;;17.20;58.32;100527.56;4954460;28;20051;-77
2023/10/01 03:55:46;;;;;;;20.10;12.85;;;;;;;17.19;58.37;100531.16;4953368;28;20562;-77
2023/10/01 03:58:25;;;;;;;18.88;12.88;;;;;;;17.18;58.68;100525.00;4954942;28;20459;-77
2023/10/01 04:00:53;;;;;;;20.55;12.55;;;;;;;17.18;58.52;100529.47;4954376;28;20528;-76
2023/10/01 04:03:21;;;;;;;17.70;12.73;;;;;;;17.17;58.91;100531.31;4954059;29;20059;-77
2023/10/01 04:05:49;;;;;;;18.27;12.13;;;;;;;17.16;58.84;100521.59;4953131;29;20043;-79
2023/10/01 04:08:15;;;;;;;22.33;13.43;;;;;;;17.16;58.95;100516.28;4954401;28;20098;-77
2023/10/01 04:10:47;;;;;;;20.02;13.00;;;;;;;17.17;58.80;100522.47;4954637;28;20067;-77
2023/10/01 04:13:20;;;;;;;21.52;12.73;;;;;;;17.17;58.90;100522.47;4954612;28;20070;-77
2023/10/01 04:15:55;;;;;;;21.63;12.57;;;;;;;17.17;59.04;100522.47;4954304;28;20105;-76
2023/10/01 04:18:28;;;;;;;18.95;12.93;;;;;;;17.16;58.96;100524.25;4953891;28;20079;-76
2023/10/01 04:23:35;;;;;;;19.38;13.15;;;;;;;17.12;59.45;100513.97;4954274;28;20588;-76
2023/10/01 04:26:07;;;;;;;18.80;11.98;;;;;;;17.13;59.38;100516.53;4954081;28;20445;-77
2023/10/01 04:28:35;;;;;;;20.65;13.88;;;;;;;17.15;58.86;100513.72;4953886;28;20062;-78
2023/10/01 04:31:09;;;;;;;18.95;12.35;;;;;;;17.13;59.40;100515.66;4952684;29;20126;-78
2023/10/01 04:33:42;;;;;;;23.08;13.20;;;;;;;17.13;59.23;100518.31;4954237;28;20079;-76
2023/10/01 04:36:16;;;;;;;21.45;12.95;;;;;;;17.13;59.22;100518.31;4953960;28;20102;-76
2023/10/01 04:38:44;;;;;;;16.90;12.38;;;;;;;17.11;59.29;100512.25;4953119;28;20087;-77
2023/10/01 04:41:18;;;;;;;24.88;13.75;;;;;;;17.08;59.56;100517.81;4953614;28;20082;-77
2023/10/01 04:43:55;;;;;;;19.73;12.82;;;;;;;17.09;59.30;100520.38;4953761;28;20494;-76
2023/10/01 04:46:29;;;;;;;17.17;11.48;;;;;;;17.09;59.33;100520.38;4953839;28;20114;-77
2023/10/01 04:48:56;;;;;;;20.05;11.68;;;;;;;17.09;59.05;100525.69;4952370;29;20047;-79
2023/10/01 04:51:24;;;;;;;16.08;12.07;;;;;;;17.09;59.40;100519.50;4952291;29;20059;-76
2023/10/01 04:53:52;;;;;;;17.05;12.10;;;;;;;17.09;59.31;100516.84;4952305;28;20062;-78
2023/10/01 04:56:21;;;;;;;17.60;12.25;;;;;;;17.07;59.28;100519.59;4953420;28;20051;-79
2023/10/01 04:58:54;;;;;;;19.45;12.70;;;;;;;17.05;59.29;100525.03;4953429;28;20051;-76
2023/10/01 05:01:24;;;;;;;19.25;12.32;;;;;;;17.06;59.27;100528.56;4946769;29;20058;-76
2023/10/01 05:03:52;;;;;;;21.30;13.35;;;;;;;17.06;59.22;100526.75;4953472;28;20669;-78
2023/10/01 05:06:20;;;;;;;18.05;11.02;;;;;;;17.04;59.39;100523.34;4953305;28;20051;-76
2023/10/01 05:08:56;;;;;;;17.55;11.95;;;;;;;17.04;59.44;100526.00;4953713;28;20047;-76
2023/10/01 05:11:29;;;;;;;18.77;11.88;;;;;;;17.04;59.46;100515.38;4951875;29;20089;-76
2023/10/01 05:13:58;;;;;;;15.23;11.00;;;;;;;17.04;59.31;100520.69;4953415;28;20058;-77
2023/10/01 05:16:28;;;;;;;16.65;11.50;;;;;;;17.04;59.43;100523.34;4953121;28;20079;-77
2023/10/01 05:19:09;;;;;;;17.52;11.80;;;;;;;17.04;59.28;100526.00;5021314;23;20220;-78
2023/10/01 05:21:27;;;;;;;17.42;11.35;;;;;;;17.06;59.42;100528.56;4913822;23;20138;-75
2023/10/01 05:23:54;;;;;;;17.42;11.40;;;;;;;17.04;59.21;100533.97;4953076;28;20138;-77
2023/10/01 05:26:21;;;;;;;19.48;11.75;;;;;;;17.05;59.33;100534.84;4952941;28;20059;-79
2023/10/01 05:28:48;;;;;;;16.08;11.30;;;;;;;17.05;59.22;100534.84;4953141;28;20051;-77
2023/10/01 05:31:15;;;;;;;18.38;11.20;;;;;;;17.04;59.29;100538.41;4953012;28;20056;-77
2023/10/01 05:33:51;;;;;;;19.25;12.52;;;;;;;17.03;59.32;100542.03;4953120;29;20058;-77
2023/10/01 05:36:19;;;;;;;17.10;10.57;;;;;;;17.03;59.09;100544.69;4953021;28;20142;-77
2023/10/01 05:38:45;;;;;;;15.43;10.68;;;;;;;17.03;59.26;100542.03;4952986;28;20051;-77
2023/10/01 05:41:16;;;;;;;18.38;11.38;;;;;;;17.01;59.11;100547.47;4952881;28;20082;-75
2023/10/01 05:43:43;;;;;;;15.32;9.98;;;;;;;17.01;59.35;100550.13;4952826;29;20051;-79
2023/10/01 05:46:10;;;;;;;19.55;11.18;;;;;;;17.00;59.36;100553.75;4952879;28;20488;-78
2023/10/01 05:48:42;;;;;;;18.30;10.20;;;;;;;16.98;60.07;100550.38;4952775;29;20059;-76
2023/10/01 05:51:15;;;;;;;18.55;10.57;;;;;;;16.99;59.40;100556.50;4952976;28;20059;-78
2023/10/01 05:53:42;;;;;;;16.73;10.65;;;;;;;17.00;59.36;100547.56;4952861;28;20062;-76
2023/10/01 05:56:10;;;;;;;15.88;10.38;;;;;;;16.99;59.28;100556.50;4952516;28;20051;-75
2023/10/01 05:58:44;;;;;;;14.60;9.75;;;;;;;16.99;59.41;100552.06;4952715;28;20563;-78
2023/10/01 06:01:16;;;;;;;16.13;9.98;;;;;;;17.00;59.47;100552.88;4952837;28;20055;-80
2023/10/01 06:03:49;;;;;;;14.15;9.70;;;;;;;17.00;59.56;100566.19;4952746;28;20082;-79
2023/10/01 06:06:25;;;;;;;15.70;9.70;;;;;;;17.01;59.51;100558.09;4951396;29;20424;-78
2023/10/01 06:08:58;;;;;;;14.15;9.52;;;;;;;17.00;59.65;100553.75;4952750;28;20480;-78
2023/10/01 06:11:39;;;;;;;15.57;10.73;;;;;;;17.01;59.27;100555.44;4952823;28;20047;-81
2023/10/01 06:14:06;;;;;;;16.58;10.10;;;;;;;17.03;59.53;100553.53;4952744;28;20547;-80
2023/10/01 06:16:39;;;;;;;16.63;9.93;;;;;;;17.03;59.50;100558.00;4952478;28;20043;-80
2023/10/01 06:19:11;;;;;;;15.82;9.55;;;;;;;17.05;59.53;100556.13;4952397;28;20130;-77
2023/10/01 06:21:41;;;;;;;12.40;8.90;;;;;;;17.06;59.49;100550.69;4952531;28;20110;-79
2023/10/01 06:24:10;;;;;;;13.50;9.48;;;;;;;17.09;59.47;100549.63;4952566;28;20109;-78
2023/10/01 06:26:37;;;;;;;17.02;9.70;;;;;;;17.10;59.62;100556.63;4952482;28;20422;-78
2023/10/01 06:29:10;;;;;;;15.30;8.80;;;;;;;17.10;59.50;100553.97;4952545;29;20122;-79
2023/10/01 06:31:48;;;;;;;14.32;8.98;;;;;;;17.13;59.59;100547.59;4952463;28;20053;-78
2023/10/01 06:34:21;;;;;;;13.38;8.52;;;;;;;17.16;59.60;100545.53;4951138;29;20047;-77
2023/10/01 06:36:57;;;;;;;16.30;9.85;;;;;;;17.19;59.60;100544.47;4951415;29;20052;-78
2023/10/01 06:39:26;;;;;;;14.38;9.20;;;;;;;17.22;59.70;100544.25;4952434;28;20055;-78
2023/10/01 06:41:52;;;;;;;12.88;8.52;;;;;;;17.25;59.74;100536.06;4951014;29;20083;-78
2023/10/01 06:44:21;;;;;;;13.98;8.90;;;;;;;17.28;59.58;100546.47;4952524;28;20094;-79
2023/10/01 06:46:51;;;;;;;15.70;8.60;;;;;;;17.30;59.74;100546.34;4952512;28;20055;-78
2023/10/01 06:49:20;;;;;;;13.30;8.00;;;;;;;17.34;59.58;100541.66;4951742;29;20050;-80
2023/10/01 06:51:47;;;;;;;12.70;8.20;;;;;;;17.34;59.30;100547.81;4952398;29;20086;-76
2023/10/01 06:54:14;;;;;;;15.30;8.95;;;;;;;17.35;59.45;100540.69;4952314;28;20785;-79
2023/10/01 06:56:47;;;;;;;15.05;8.63;;;;;;;17.36;59.36;100540.59;4952046;28;20055;-78
2023/10/01 06:59:17;;;;;;;12.40;7.88;;;;;;;17.37;59.28;100534.31;4951808;28;20388;-79
2023/10/01 07:01:48;;;;;;;13.15;8.25;;;;;;;17.38;59.55;100533.34;4953875;28;20067;-78
2023/10/01 07:04:23;;;;;;;13.93;7.57;;;;;;;17.39;59.51;100540.38;4955613;28;20415;-78
2023/10/01 07:06:50;;;;;;;13.45;7.80;;;;;;;17.42;59.35;100547.28;4955731;28;20047;-78
2023/10/01 07:09:27;;;;;;;12.65;7.22;;;;;;;17.45;59.63;100541.72;4955628;28;20504;-78
2023/10/01 07:11:56;;;;;;;14.40;7.55;;;;;;;17.48;59.69;100538.84;4955618;28;20059;-76
2023/10/01 07:14:31;;;;;;;15.10;7.80;;;;;;;17.50;59.50;100534.25;4955395;28;20721;-79
2023/10/01 07:16:59;;;;;;;14.63;7.65;;;;;;;17.56;59.40;100540.91;4955534;28;20051;-77
2023/10/01 07:19:27;;;;;;;12.00;7.10;;;;;;;17.59;59.57;100543.38;4955063;28;20046;-79
2023/10/01 07:22:06;;;;;;;14.23;7.53;;;;;;;17.62;59.42;100543.16;4955187;28;20051;-78
2023/10/01 07:24:33;;;;;;;12.00;6.93;;;;;;;17.67;59.33;100548.09;4955074;29;20062;-78
2023/10/01 07:27:03;;;;;;;11.73;7.28;;;;;;;17.69;59.46;100549.69;4955346;28;20051;-78
2023/10/01 07:29:34;;;;;;;13.07;7.35;;;;;;;17.74;59.29;100552.03;4955096;28;20073;-78
2023/10/01 07:32:08;;;;;;;11.63;7.28;;;;;;;17.78;59.53;100563.28;4954936;28;20519;-79
2023/10/01 07:34:39;;;;;;;16.13;7.63;;;;;;;17.82;59.05;100551.44;4953775;29;20051;-78
2023/10/01 07:37:08;;;;;;;15.32;7.50;;;;;;;17.86;59.38;100554.75;4955217;28;20687;-81
2023/10/01 07:39:37;;;;;;;10.70;6.80;;;;;;;17.87;59.32;100546.59;4955271;28;20051;-79
2023/10/01 07:42:04;;;;;;;12.32;7.45;;;;;;;17.90;59.08;100540.22;4954467;28;20047;-77
2023/10/01 07:44:36;;;;;;;13.40;7.22;;;;;;;17.91;58.95;100545.41;4954725;28;20059;-79
2023/10/01 07:47:03;;;;;;;11.52;6.72;;;;;;;17.96;59.45;100545.06;4955041;28;20051;-80
2023/10/01 07:49:49;;;;;;;12.10;7.22;;;;;;;17.99;59.02;100539.53;4955012;28;20130;-77
2023/10/01 07:52:20;;;;;;;14.48;6.95;;;;;;;18.04;59.08;100532.03;4954562;28;20062;-78
2023/10/01 07:54:48;;;;;;;13.95;6.93;;;;;;;18.09;59.18;100543.22;4954531;28;20401;-79
2023/10/01 07:57:16;;;;;;;15.88;7.40;;;;;;;18.14;59.04;100542.00;4955048;28;20051;-81
2023/10/01 07:59:46;;;;;;;11.98;7.30;;;;;;;18.20;58.68;100554.84;4953687;29;20047;-78
2023/10/01 08:07:17;;;;;;;12.05;6.65;;;;;;;18.33;58.37;100546.78;4954735;28;20287;-77
2023/10/01 08:09:57;;;;;;;13.05;7.13;;;;;;;18.33;58.61;100547.63;4954627;28;20055;-79
2023/10/01 08:12:29;;;;;;;11.27;6.82;;;;;;;18.36;58.55;100541.22;4953463;28;20083;-79
2023/10/01 08:17:43;;;;;;;13.38;6.53;;;;;;;18.41;58.65;100552.38;4954260;29;20062;-79
2023/10/01 08:20:31;;;;;;;11.40;7.15;;;;;;;18.45;58.70;100552.97;4954332;28;20134;-79
2023/10/01 08:23:22;;;;;;;15.23;6.80;;;;;;;18.50;58.84;100561.44;4954372;28;20055;-78
2023/10/01 08:25:54;;;;;;;12.73;6.20;;;;;;;18.56;58.78;100563.66;4954083;28;20055;-79
2023/10/01 08:30:49;;;;;;;12.15;6.90;;;;;;;18.62;58.14;100563.16;4954133;28;20436;-77
2023/10/01 08:33:19;;;;;;;12.73;7.25;;;;;;;18.67;58.17;100559.28;4954192;29;20066;-79
2023/10/01 08:36:01;;;;;;;12.65;7.30;;;;;;;18.68;58.04;100563.63;4954062;28;20051;-76
2023/10/01 08:38:34;;;;;;;14.48;6.85;;;;;;;18.72;58.39;100559.75;4953664;28;20116;-79
2023/10/01 08:41:05;;;;;;;;;;;;;;;18.74;58.48;100557.84;4954652;28;20477;-78
2023/10/01 08:43:36;;;;;;;11.00;6.28;;;;;;;18.86;58.63;100562.22;4954085;28;20012;-79
2023/10/01 08:46:17;;;;;;;14.45;7.10;;;;;;;18.87;58.61;100561.22;4953912;28;20106;-79
2023/10/01 08:48:44;;;;;;;14.63;7.55;;;;;;;18.97;58.40;100560.50;4952292;29;20495;-78
2023/10/01 08:51:12;;;;;;;12.55;7.10;;;;;;;19.03;58.21;100560.00;4953816;28;20452;-79
2023/10/01 08:53:42;;;;;;;14.20;6.90;;;;;;;19.10;58.36;100560.41;4954004;28;20137;-79
2023/10/01 08:56:27;;;;;;;11.82;6.25;;;;;;;19.17;58.18;100553.56;4953833;28;20058;-80
2023/10/01 08:58:59;;;;;;;12.57;7.00;;;;;;;19.25;57.79;100560.97;4952893;28;20051;-79
2023/10/01 09:01:29;;;;;;;14.10;7.30;;;;;;;19.29;57.94;100553.56;4953738;28;20051;-79
2023/10/01 09:03:57;;;;;;;15.38;7.05;;;;;;;19.36;57.85;100557.44;4953816;28;20196;-81
2023/10/01 09:06:59;;;;;;;15.57;7.25;;;;;;;19.37;57.99;100553.78;4953633;28;20059;-82
2023/10/01 09:09:26;;;;;;;10.85;7.03;;;;;;;19.49;57.74;100560.81;4953195;28;20055;-78
2023/10/01 09:11:58;;;;;;;11.98;6.85;;;;;;;19.56;57.49;100553.13;4953525;28;20057;-78
2023/10/01 09:14:40;;;;;;;15.23;7.35;;;;;;;19.57;57.40;100552.16;4953254;28;20047;-79
2023/10/01 09:17:24;;;;;;;11.07;6.70;;;;;;;19.63;57.60;100554.28;4953592;28;20055;-79
2023/10/01 09:19:54;;;;;;;13.38;6.88;;;;;;;19.74;57.93;100563.25;4952870;28;20061;-79
2023/10/01 09:25:16;;;;;;;11.35;6.43;;;;;;;19.86;57.76;100556.03;4953072;28;20137;-78
2023/10/01 09:28:19;;;;;;;11.55;6.53;;;;;;;19.92;56.94;100550.16;4952224;29;20059;-79
2023/10/01 09:30:58;;;;;;;12.23;6.75;;;;;;;20.00;57.12;100541.56;4952389;29;20051;-78
2023/10/01 09:33:24;;;;;;;15.25;7.40;;;;;;;20.06;57.20;100543.69;4953183;28;20055;-81
2023/10/01 09:35:59;;;;;;;11.95;6.70;;;;;;;20.09;56.85;100546.13;4953156;28;20139;-78
2023/10/01 09:38:29;;;;;;;12.32;7.07;;;;;;;20.15;56.89;100556.28;4953032;28;20062;-78
2023/10/01 09:40:57;;;;;;;15.02;7.05;;;;;;;20.19;57.04;100554.19;4952951;28;20058;-78
2023/10/01 09:43:24;;;;;;;13.20;7.38;;;;;;;20.24;57.00;100549.31;4953184;28;20055;-79
2023/10/01 09:45:53;;;;;;;14.13;8.05;;;;;;;20.31;56.82;100557.66;4952798;28;20047;-79
2023/10/01 09:48:33;;;;;;;15.15;7.43;;;;;;;20.37;57.08;100556.28;4953083;29;20051;-82
2023/10/01 09:51:17;;;;;;;13.23;6.93;;;;;;;20.49;57.07;100557.03;4951026;29;20523;-80
2023/10/01 09:53:45;;;;;;;14.38;7.20;;;;;;;20.61;57.06;100547.94;4952846;29;20117;-79
2023/10/01 09:56:13;;;;;;;15.70;8.02;;;;;;;20.70;57.05;100552.50;4952980;28;20136;-79
2023/10/01 09:58:47;;;;;;;18.52;8.63;;;;;;;20.83;57.11;100554.09;4952953;28;20062;-79
2023/10/01 10:01:17;;;;;;;14.95;7.60;;;;;;;20.93;57.33;100555.00;4952470;28;20051;-78
2023/10/01 10:03:49;;;;;;;13.90;7.93;;;;;;;21.04;57.03;100550.53;4952818;28;20058;-83
2023/10/01 10:06:24;;;;;;;13.05;7.43;;;;;;;21.16;56.66;100552.09;4951396;29;20051;-79
2023/10/01 10:09:03;;;;;;;13.23;7.50;;;;;;;21.28;56.72;100531.44;4953032;28;20138;-80
2023/10/01 10:11:37;;;;;;;14.20;7.28;;;;;;;21.38;56.32;100520.72;4951848;28;20055;-79
2023/10/01 10:14:28;;;;;;;17.67;8.25;;;;;;;21.47;55.90;100525.25;4952734;28;20054;-79
2023/10/01 10:16:59;;;;;;;15.07;7.00;;;;;;;21.63;56.35;100531.03;4952902;29;20062;-78
2023/10/01 10:19:31;;;;;;;14.30;7.90;;;;;;;21.75;56.47;100516.50;4952689;28;20059;-79
2023/10/01 10:24:32;;;;;;;15.95;7.78;;;;;;;22.03;56.10;100538.06;4952469;28;20515;-81
2023/10/01 10:27:09;;;;;;;16.23;7.82;;;;;;;22.16;55.81;100528.88;4952501;28;20051;-78
2023/10/01 10:30:00;;;;;;;15.35;7.28;;;;;;;22.24;55.20;100537.88;4952636;28;20390;-76
2023/10/01 10:32:30;;;;;;;11.35;6.82;;;;;;;22.38;55.36;100541.09;4946262;29;20106;-79
2023/10/01 10:35:04;;;;;;;15.63;7.63;;;;;;;22.44;54.50;100535.16;4952390;28;20047;-82
2023/10/01 10:37:44;;;;;;;15.32;7.68;;;;;;;22.51;54.47;100533.56;4956270;28;20050;-78
2023/10/01 10:43:02;;;;;;;16.50;7.75;;;;;;;22.61;53.93;100522.84;4955643;28;20460;-79
2023/10/01 10:45:42;;;;;;;13.60;6.75;;;;;;;22.69;54.35;100519.41;4956057;28;20051;-79
2023/10/01 10:48:10;;;;;;;15.95;7.18;;;;;;;22.72;54.18;100519.09;4956326;28;20150;-79
2023/10/01 10:51:02;;;;;;;14.68;7.75;;;;;;;22.74;53.83;100527.88;4956013;29;20063;-80
2023/10/01 10:53:42;;;;;;;11.48;6.85;;;;;;;22.80;54.09;100514.84;4953162;29;20051;-79
2023/10/01 10:56:14;;;;;;;15.55;7.75;;;;;;;22.83;54.19;100527.97;4955995;28;20055;-79
2023/10/01 10:58:53;;;;;;;12.63;6.93;;;;;;;22.90;54.46;100527.22;4956167;28;20085;-79
2023/10/01 11:01:20;;;;;;;13.90;7.50;;;;;;;22.98;54.36;100529.16;4955786;28;20083;-79
2023/10/01 11:03:56;;;;;;;16.17;7.97;;;;;;;23.03;54.13;100517.97;4955295;28;20051;-79
2023/10/01 11:06:42;;;;;;;16.48;7.80;;;;;;;23.16;54.05;100525.66;4936538;29;20140;-79
2023/10/01 11:09:22;;;;;;;12.68;7.10;;;;;;;23.29;54.37;100518.06;4936820;29;20051;-80
2023/10/01 11:12:05;;;;;;;15.63;8.27;;;;;;;23.53;55.89;100511.28;4936529;29;20548;-82
2023/10/01 11:14:36;;;;;;;13.95;7.18;;;;;;;23.91;55.91;100515.59;4938005;29;20489;-79
2023/10/01 11:17:06;;;;;;;12.90;6.60;;;;;;;24.37;55.98;100509.22;4955309;28;20518;-79
2023/10/01 11:22:14;;;;;;;16.77;7.40;;;;;;;25.33;53.76;100500.94;4953171;23;20047;-77
2023/10/01 11:24:42;;;;;;;11.77;7.03;;;;;;;25.72;52.67;100502.19;4955158;29;20555;-76
2023/10/01 11:27:14;;;;;;;10.45;6.93;;;;;;;26.06;50.73;100501.16;4955343;28;20047;-76
2023/10/01 11:29:41;;;;;;;;;;;;;;;26.32;52.52;100508.19;4955768;28;20515;-77
2023/10/01 11:32:16;;;;;;;11.07;6.10;;;;;;;26.65;50.77;100499.97;4955538;28;20044;-76
2023/10/01 11:34:45;;;;;;;15.07;7.35;;;;;;;26.87;49.99;100505.59;4955151;28;20051;-77
2023/10/01 11:37:18;;;;;;;10.80;6.78;;;;;;;27.03;48.24;100506.56;4955225;28;20051;-77
2023/10/01 11:39:52;;;;;;;13.55;6.93;;;;;;;27.26;48.89;100511.16;4955163;28;20113;-76
2023/10/01 11:42:38;;;;;;;14.18;6.88;;;;;;;27.48;48.87;100506.78;4955266;28;20055;-75
2023/10/01 11:45:48;;;;;;;10.82;6.50;;;;;;;27.86;48.48;100503.25;4954953;28;20051;-77
2023/10/01 11:48:19;;;;;;;11.38;6.32;;;;;;;28.27;47.75;100501.19;4954801;28;20051;-76
2023/10/01 11:50:50;;;;;;;10.43;6.35;;;;;;;28.51;46.61;100497.34;4955321;28;20235;-78
2023/10/01 11:53:28;;;;;;;9.05;6.07;;;;;;;28.71;46.40;100497.59;4955084;28;20056;-78
2023/10/01 11:56:01;;;;;;;10.43;6.10;;;;;;;28.98;46.14;100488.97;4954517;28;20643;-76
2023/10/01 12:01:01;;;;;;;11.70;6.45;;;;;;;29.64;46.00;100489.84;4995942;23;20058;-80
2023/10/01 12:03:28;;;;;;;10.35;5.93;;;;;;;30.03;45.36;100493.88;4954509;28;20416;-78
2023/10/01 12:05:56;;;;;;;10.45;6.47;;;;;;;30.40;44.06;100477.41;4954910;28;20047;-80